Terminal Aerodrome Forecast
Issued by NWS

Home | Current Version | Previous Version | Text Only | Print | Product List | Glossary Off
Versions: 1 2 3 4 5 6 7 8 9 10 11 12 13 14 15 16

311
FTUS43 KFGF 251123
TAFBJI
TAF
KBJI 251123Z 2512/2612 14008KT P6SM SCT200
     FM251500 16013G20KT P6SM SCT100
     FM251700 16015G23KT P6SM BKN080
     FM260100 15009KT P6SM OVC045
     FM260700 16008KT P6SM BKN030=

USA.gov is the U.S. government's official web portal to all federal, state and local government web resources and services.